ウルムチ の空港の天気 - METARとTAF

ウルムチ地窩堡国際空港 ( ZWWW / URC ) - 中国 新疆ウイグル自治区ウルムチ市
飛行場実況気象(Metar)
観測時間10/23 21:00 CST (10/23 13:00 UTC)
風向・風速不定 1m/s
視程8000m
天気現象
なし
気温12℃
湿度50%
気圧1019hPa
METARZWWW 231300Z VRB01MPS 8000 NSC 12/02 Q1019 NOSIG
過去の天気等 Google飛行場航空写真 Wunderground天気予報

過去48時間のMETAR

飛行場予報(TAF)
発表時間: 10/23 17:21 CST (10/23 09:21 UTC)
予報対象時間: 23日20時 CST ~ 24日20時 CST
風向・風速北 4m/s
視程10km以上
なし
23日21時 CST ~ 23日22時 CST に徐々に
風向・風速南 4m/s
24日10時 CST ~ 24日11時 CST に徐々に
風向・風速北 4m/s
TAF ZWWW 230921Z 2312/2412 36004MPS CAVOK TX17/2408Z TN06/2323Z
BECMG 2313/2314 18004MPS
BECMG 2402/2403 36004MPS